sensor_id;sensor_type;location;lat;lon;timestamp;pressure;altitude;pressure_sealevel;temperature;humidity
20077;BME280;12348;42.710;23.378;2023-03-14T00:00:09;95398.78;;;2.27;79.46
20077;BME280;12348;42.710;23.378;2023-03-14T00:02:37;95400.28;;;2.23;79.94
20077;BME280;12348;42.710;23.378;2023-03-14T00:05:04;95387.13;;;2.16;80.46
20077;BME280;12348;42.710;23.378;2023-03-14T00:07:33;95383.09;;;2.02;81.70
20077;BME280;12348;42.710;23.378;2023-03-14T00:10:02;95382.50;;;1.88;83.44
20077;BME280;12348;42.710;23.378;2023-03-14T00:12:31;95367.34;;;1.77;85.06
20077;BME280;12348;42.710;23.378;2023-03-14T00:14:59;95370.78;;;1.65;87.00
20077;BME280;12348;42.710;23.378;2023-03-14T00:17:29;95366.97;;;1.61;87.69
20077;BME280;12348;42.710;23.378;2023-03-14T00:19:56;95365.47;;;1.54;89.31
20077;BME280;12348;42.710;23.378;2023-03-14T00:22:29;95357.59;;;1.47;90.13
20077;BME280;12348;42.710;23.378;2023-03-14T00:24:56;95351.38;;;1.53;90.05
20077;BME280;12348;42.710;23.378;2023-03-14T00:27:23;95348.50;;;1.55;90.49
20077;BME280;12348;42.710;23.378;2023-03-14T00:29:49;95339.06;;;1.94;88.17
20077;BME280;12348;42.710;23.378;2023-03-14T00:32:18;95346.38;;;1.87;87.25
20077;BME280;12348;42.710;23.378;2023-03-14T00:34:45;95335.75;;;2.10;87.43
20077;BME280;12348;42.710;23.378;2023-03-14T00:37:11;95341.16;;;2.15;85.74
20077;BME280;12348;42.710;23.378;2023-03-14T00:39:38;95335.16;;;1.97;86.01
20077;BME280;12348;42.710;23.378;2023-03-14T00:42:05;95339.91;;;2.06;84.69
20077;BME280;12348;42.710;23.378;2023-03-14T00:44:32;95329.28;;;2.06;84.49
20077;BME280;12348;42.710;23.378;2023-03-14T00:46:58;95335.63;;;1.93;84.78
20077;BME280;12348;42.710;23.378;2023-03-14T00:49:27;95331.00;;;1.77;85.99
20077;BME280;12348;42.710;23.378;2023-03-14T00:51:54;95339.41;;;1.74;86.20
20077;BME280;12348;42.710;23.378;2023-03-14T00:54:20;95333.28;;;1.74;86.34
20077;BME280;12348;42.710;23.378;2023-03-14T00:56:47;95322.56;;;1.68;86.60
20077;BME280;12348;42.710;23.378;2023-03-14T00:59:15;95332.59;;;1.66;87.09
20077;BME280;12348;42.710;23.378;2023-03-14T01:04:17;95319.56;;;1.65;87.03
20077;BME280;12348;42.710;23.378;2023-03-14T01:06:45;95312.84;;;1.62;86.93
20077;BME280;12348;42.710;23.378;2023-03-14T01:09:12;95310.66;;;1.59;87.52
20077;BME280;12348;42.710;23.378;2023-03-14T01:11:39;95309.16;;;1.52;88.09
20077;BME280;12348;42.710;23.378;2023-03-14T01:14:06;95313.09;;;1.73;88.03
20077;BME280;12348;42.710;23.378;2023-03-14T01:16:34;95306.75;;;1.74;87.46
20077;BME280;12348;42.710;23.378;2023-03-14T01:19:01;95306.06;;;1.66;87.53
20077;BME280;12348;42.710;23.378;2023-03-14T01:21:30;95295.75;;;1.47;89.22
20077;BME280;12348;42.710;23.378;2023-03-14T01:24:00;95299.56;;;1.39;90.34
20077;BME280;12348;42.710;23.378;2023-03-14T01:26:30;95288.81;;;1.34;90.76
20077;BME280;12348;42.710;23.378;2023-03-14T01:28:57;95295.41;;;1.31;91.17
20077;BME280;12348;42.710;23.378;2023-03-14T01:31:25;95286.22;;;1.15;92.77
20077;BME280;12348;42.710;23.378;2023-03-14T01:33:52;95287.34;;;1.08;93.67
20077;BME280;12348;42.710;23.378;2023-03-14T01:36:20;95288.63;;;1.47;93.23
20077;BME280;12348;42.710;23.378;2023-03-14T01:38:46;95284.44;;;1.28;93.15
20077;BME280;12348;42.710;23.378;2023-03-14T01:41:16;95276.06;;;1.54;91.54
20077;BME280;12348;42.710;23.378;2023-03-14T01:43:44;95277.91;;;1.54;90.44
20077;BME280;12348;42.710;23.378;2023-03-14T01:46:25;95279.25;;;1.33;91.48
20077;BME280;12348;42.710;23.378;2023-03-14T01:48:57;95278.91;;;1.41;90.92
20077;BME280;12348;42.710;23.378;2023-03-14T01:51:30;95271.88;;;1.35;91.59
20077;BME280;12348;42.710;23.378;2023-03-14T01:54:02;95264.94;;;1.45;91.75
20077;BME280;12348;42.710;23.378;2023-03-14T01:56:33;95265.28;;;1.37;91.06
20077;BME280;12348;42.710;23.378;2023-03-14T01:59:01;95261.84;;;1.49;91.25
20077;BME280;12348;42.710;23.378;2023-03-14T02:01:30;95267.94;;;1.49;90.71
20077;BME280;12348;42.710;23.378;2023-03-14T02:04:01;95272.59;;;1.42;90.55
20077;BME280;12348;42.710;23.378;2023-03-14T02:06:34;95273.81;;;1.28;91.45
20077;BME280;12348;42.710;23.378;2023-03-14T02:09:03;95264.09;;;1.21;91.57
20077;BME280;12348;42.710;23.378;2023-03-14T02:11:30;95262.69;;;1.07;92.61
20077;BME280;12348;42.710;23.378;2023-03-14T02:13:59;95259.50;;;1.17;92.84
20077;BME280;12348;42.710;23.378;2023-03-14T02:16:28;95263.22;;;1.28;92.07
20077;BME280;12348;42.710;23.378;2023-03-14T02:18:54;95260.06;;;1.19;92.38
20077;BME280;12348;42.710;23.378;2023-03-14T02:21:32;95264.00;;;1.16;93.22
20077;BME280;12348;42.710;23.378;2023-03-14T02:24:08;95254.16;;;1.05;93.98
20077;BME280;12348;42.710;23.378;2023-03-14T02:26:38;95256.53;;;0.83;95.86
20077;BME280;12348;42.710;23.378;2023-03-14T02:29:08;95251.47;;;0.63;100.00
20077;BME280;12348;42.710;23.378;2023-03-14T02:31:35;95256.91;;;0.38;100.00
20077;BME280;12348;42.710;23.378;2023-03-14T02:34:02;95250.72;;;0.26;100.00
20077;BME280;12348;42.710;23.378;2023-03-14T02:36:30;95251.69;;;0.13;100.00
20077;BME280;12348;42.710;23.378;2023-03-14T02:39:03;95245.59;;;0.13;100.00
20077;BME280;12348;42.710;23.378;2023-03-14T02:41:31;95255.22;;;0.07;100.00
20077;BME280;12348;42.710;23.378;2023-03-14T02:43:58;95267.72;;;0.00;100.00
20077;BME280;12348;42.710;23.378;2023-03-14T02:46:27;95261.03;;;0.34;100.00
20077;BME280;12348;42.710;23.378;2023-03-14T02:48:56;95261.31;;;0.26;100.00
20077;BME280;12348;42.710;23.378;2023-03-14T02:51:25;95270.28;;;0.07;100.00
20077;BME280;12348;42.710;23.378;2023-03-14T02:53:52;95269.91;;;-0.15;100.00
20077;BME280;12348;42.710;23.378;2023-03-14T02:56:19;95272.53;;;-0.15;100.00
20077;BME280;12348;42.710;23.378;2023-03-14T02:58:46;95270.16;;;-0.42;100.00
20077;BME280;12348;42.710;23.378;2023-03-14T03:01:13;95274.78;;;-0.56;100.00
20077;BME280;12348;42.710;23.378;2023-03-14T03:03:41;95269.91;;;-0.59;100.00
20077;BME280;12348;42.710;23.378;2023-03-14T03:06:08;95263.72;;;-0.53;100.00
20077;BME280;12348;42.710;23.378;2023-03-14T03:08:35;95275.28;;;-0.72;100.00
20077;BME280;12348;42.710;23.378;2023-03-14T03:11:03;95280.19;;;-0.76;100.00
20077;BME280;12348;42.710;23.378;2023-03-14T03:13:30;95268.84;;;-0.83;100.00
20077;BME280;12348;42.710;23.378;2023-03-14T03:15:57;95271.34;;;-0.88;100.00
20077;BME280;12348;42.710;23.378;2023-03-14T03:18:23;95265.00;;;-1.12;100.00
20077;BME280;12348;42.710;23.378;2023-03-14T03:20:51;95265.00;;;-1.12;100.00
20077;BME280;12348;42.710;23.378;2023-03-14T03:23:18;95268.03;;;-1.08;100.00
20077;BME280;12348;42.710;23.378;2023-03-14T03:25:48;95268.66;;;-1.13;100.00
20077;BME280;12348;42.710;23.378;2023-03-14T03:28:15;95268.84;;;-1.08;100.00
20077;BME280;12348;42.710;23.378;2023-03-14T03:30:43;95260.69;;;-1.06;100.00
20077;BME280;12348;42.710;23.378;2023-03-14T03:33:10;95266.59;;;-1.04;100.00
20077;BME280;12348;42.710;23.378;2023-03-14T03:35:42;95262.97;;;-1.10;100.00
20077;BME280;12348;42.710;23.378;2023-03-14T03:38:11;95264.81;;;-1.17;100.00
20077;BME280;12348;42.710;23.378;2023-03-14T03:40:38;95258.91;;;-1.12;100.00
20077;BME280;12348;42.710;23.378;2023-03-14T03:43:05;95259.13;;;-1.14;100.00
20077;BME280;12348;42.710;23.378;2023-03-14T03:45:32;95269.53;;;-0.94;100.00
20077;BME280;12348;42.710;23.378;2023-03-14T03:47:59;95262.88;;;-0.96;100.00
20077;BME280;12348;42.710;23.378;2023-03-14T03:50:25;95265.69;;;-0.91;100.00
20077;BME280;12348;42.710;23.378;2023-03-14T03:52:52;95271.81;;;-0.98;100.00
20077;BME280;12348;42.710;23.378;2023-03-14T03:55:20;95273.22;;;-0.95;100.00
20077;BME280;12348;42.710;23.378;2023-03-14T03:57:47;95274.03;;;-0.94;100.00
20077;BME280;12348;42.710;23.378;2023-03-14T04:00:14;95276.28;;;-0.98;100.00
20077;BME280;12348;42.710;23.378;2023-03-14T04:02:41;95275.91;;;-1.02;100.00
20077;BME280;12348;42.710;23.378;2023-03-14T04:05:08;95277.16;;;-1.04;100.00
20077;BME280;12348;42.710;23.378;2023-03-14T04:07:35;95273.91;;;-1.06;100.00
20077;BME280;12348;42.710;23.378;2023-03-14T04:10:02;95276.38;;;-1.11;100.00
20077;BME280;12348;42.710;23.378;2023-03-14T04:12:30;95273.88;;;-1.00;100.00
20077;BME280;12348;42.710;23.378;2023-03-14T04:14:57;95268.97;;;-0.96;100.00
20077;BME280;12348;42.710;23.378;2023-03-14T04:17:24;95270.19;;;-0.99;100.00
20077;BME280;12348;42.710;23.378;2023-03-14T04:19:50;95269.81;;;-1.02;100.00
20077;BME280;12348;42.710;23.378;2023-03-14T04:22:19;95265.44;;;-1.15;100.00
20077;BME280;12348;42.710;23.378;2023-03-14T04:24:46;95252.09;;;-1.27;100.00
20077;BME280;12348;42.710;23.378;2023-03-14T04:27:12;95252.34;;;-1.03;100.00
20077;BME280;12348;42.710;23.378;2023-03-14T04:29:45;95251.94;;;-1.00;100.00
20077;BME280;12348;42.710;23.378;2023-03-14T04:32:11;95248.97;;;-0.85;100.00
20077;BME280;12348;42.710;23.378;2023-03-14T04:34:38;95243.63;;;-0.79;100.00
20077;BME280;12348;42.710;23.378;2023-03-14T04:37:05;95239.16;;;-0.78;100.00
20077;BME280;12348;42.710;23.378;2023-03-14T04:39:32;95249.66;;;-0.71;100.00
20077;BME280;12348;42.710;23.378;2023-03-14T04:41:58;95232.72;;;-0.89;100.00
20077;BME280;12348;42.710;23.378;2023-03-14T04:44:26;95236.47;;;-0.96;100.00
20077;BME280;12348;42.710;23.378;2023-03-14T04:46:54;95233.94;;;-0.41;100.00
20077;BME280;12348;42.710;23.378;2023-03-14T04:49:21;95232.03;;;0.69;100.00
20077;BME280;12348;42.710;23.378;2023-03-14T04:51:47;95229.66;;;1.57;100.00
20077;BME280;12348;42.710;23.378;2023-03-14T04:54:16;95217.41;;;2.03;100.00
20077;BME280;12348;42.710;23.378;2023-03-14T04:56:43;95213.28;;;3.09;100.00
20077;BME280;12348;42.710;23.378;2023-03-14T04:59:09;95215.25;;;3.81;100.00
20077;BME280;12348;42.710;23.378;2023-03-14T05:01:36;95217.69;;;4.05;89.92
20077;BME280;12348;42.710;23.378;2023-03-14T05:04:04;95217.50;;;4.11;87.38
20077;BME280;12348;42.710;23.378;2023-03-14T05:06:31;95221.28;;;4.16;84.68
20077;BME280;12348;42.710;23.378;2023-03-14T05:08:58;95226.78;;;3.20;87.62
20077;BME280;12348;42.710;23.378;2023-03-14T05:11:25;95223.59;;;2.60;91.79
20077;BME280;12348;42.710;23.378;2023-03-14T05:13:52;95221.31;;;2.12;98.09
20077;BME280;12348;42.710;23.378;2023-03-14T05:16:18;95219.66;;;3.08;99.13
20077;BME280;12348;42.710;23.378;2023-03-14T05:18:45;95214.91;;;4.88;83.43
20077;BME280;12348;42.710;23.378;2023-03-14T05:21:13;95209.03;;;6.92;72.23
20077;BME280;12348;42.710;23.378;2023-03-14T05:23:40;95211.19;;;7.97;65.07
20077;BME280;12348;42.710;23.378;2023-03-14T05:26:07;95210.44;;;9.27;58.06
20077;BME280;12348;42.710;23.378;2023-03-14T05:28:33;95200.66;;;10.04;54.05
20077;BME280;12348;42.710;23.378;2023-03-14T05:31:00;95194.47;;;10.57;50.82
20077;BME280;12348;42.710;23.378;2023-03-14T05:33:27;95194.78;;;11.87;47.90
20077;BME280;12348;42.710;23.378;2023-03-14T05:35:54;95200.22;;;11.12;48.31
20077;BME280;12348;42.710;23.378;2023-03-14T05:38:22;95195.22;;;11.57;47.83
20077;BME280;12348;42.710;23.378;2023-03-14T05:40:49;95196.31;;;14.30;44.13
20077;BME280;12348;42.710;23.378;2023-03-14T05:43:16;95194.50;;;14.79;41.28
20077;BME280;12348;42.710;23.378;2023-03-14T05:45:43;95200.22;;;13.84;41.64
20077;BME280;12348;42.710;23.378;2023-03-14T05:48:10;95192.84;;;13.76;42.22
20077;BME280;12348;42.710;23.378;2023-03-14T05:50:37;95199.78;;;13.91;41.65
20077;BME280;12348;42.710;23.378;2023-03-14T05:53:04;95190.31;;;15.99;38.89
20077;BME280;12348;42.710;23.378;2023-03-14T05:55:32;95193.31;;;15.20;39.56
20077;BME280;12348;42.710;23.378;2023-03-14T05:57:59;95200.66;;;15.37;39.06
20077;BME280;12348;42.710;23.378;2023-03-14T06:00:26;95196.56;;;14.42;40.22
20077;BME280;12348;42.710;23.378;2023-03-14T06:02:53;95193.41;;;14.18;40.62
20077;BME280;12348;42.710;23.378;2023-03-14T06:05:20;95198.84;;;14.26;39.86
20077;BME280;12348;42.710;23.378;2023-03-14T06:07:47;95196.88;;;12.65;42.07
20077;BME280;12348;42.710;23.378;2023-03-14T06:10:13;95191.72;;;15.36;39.12
20077;BME280;12348;42.710;23.378;2023-03-14T06:12:41;95183.09;;;15.60;38.75
20077;BME280;12348;42.710;23.378;2023-03-14T06:15:09;95192.41;;;14.45;38.91
20077;BME280;12348;42.710;23.378;2023-03-14T06:17:36;95192.28;;;13.29;40.93
20077;BME280;12348;42.710;23.378;2023-03-14T06:20:03;95188.44;;;13.66;41.37
20077;BME280;12348;42.710;23.378;2023-03-14T06:22:30;95184.66;;;12.67;42.51
20077;BME280;12348;42.710;23.378;2023-03-14T06:24:57;95199.44;;;13.11;42.62
20077;BME280;12348;42.710;23.378;2023-03-14T06:27:27;95200.94;;;13.76;42.18
20077;BME280;12348;42.710;23.378;2023-03-14T06:29:55;95193.00;;;15.21;39.64
20077;BME280;12348;42.710;23.378;2023-03-14T06:32:22;95188.22;;;15.36;38.53
20077;BME280;12348;42.710;23.378;2023-03-14T06:34:49;95197.09;;;14.22;40.40
20077;BME280;12348;42.710;23.378;2023-03-14T06:37:19;95203.88;;;14.73;40.49
20077;BME280;12348;42.710;23.378;2023-03-14T06:39:46;95199.22;;;14.65;39.41
20077;BME280;12348;42.710;23.378;2023-03-14T06:42:12;95187.69;;;15.08;39.79
20077;BME280;12348;42.710;23.378;2023-03-14T06:44:39;95185.38;;;15.67;38.00
20077;BME280;12348;42.710;23.378;2023-03-14T06:47:07;95183.59;;;15.62;37.80
20077;BME280;12348;42.710;23.378;2023-03-14T06:49:34;95185.75;;;14.91;38.91
20077;BME280;12348;42.710;23.378;2023-03-14T06:52:01;95182.09;;;14.87;39.08
20077;BME280;12348;42.710;23.378;2023-03-14T06:54:28;95163.94;;;15.83;38.15
20077;BME280;12348;42.710;23.378;2023-03-14T06:56:55;95159.25;;;16.18;36.69
20077;BME280;12348;42.710;23.378;2023-03-14T06:59:24;95171.31;;;18.44;33.72
20077;BME280;12348;42.710;23.378;2023-03-14T07:01:51;95167.75;;;16.93;34.33
20077;BME280;12348;42.710;23.378;2023-03-14T07:04:19;95154.72;;;17.07;34.74
20077;BME280;12348;42.710;23.378;2023-03-14T07:06:46;95160.13;;;15.92;37.01
20077;BME280;12348;42.710;23.378;2023-03-14T07:09:13;95154.78;;;16.60;35.98
20077;BME280;12348;42.710;23.378;2023-03-14T07:11:42;95146.66;;;18.40;33.51
20077;BME280;12348;42.710;23.378;2023-03-14T07:14:10;95152.31;;;20.14;31.06
20077;BME280;12348;42.710;23.378;2023-03-14T07:16:37;95145.63;;;17.24;34.07
20077;BME280;12348;42.710;23.378;2023-03-14T07:19:04;95142.34;;;17.93;32.87
20077;BME280;12348;42.710;23.378;2023-03-14T07:21:32;95151.44;;;17.14;33.83
20077;BME280;12348;42.710;23.378;2023-03-14T07:24:00;95153.25;;;17.93;31.97
20077;BME280;12348;42.710;23.378;2023-03-14T07:26:26;95151.47;;;17.56;31.65
20077;BME280;12348;42.710;23.378;2023-03-14T07:28:53;95152.88;;;16.90;33.25
20077;BME280;12348;42.710;23.378;2023-03-14T07:31:20;95144.59;;;18.37;31.89
20077;BME280;12348;42.710;23.378;2023-03-14T07:33:47;95145.03;;;17.18;31.42
20077;BME280;12348;42.710;23.378;2023-03-14T07:36:14;95148.41;;;14.30;35.77
20077;BME280;12348;42.710;23.378;2023-03-14T07:38:42;95147.22;;;13.92;36.36
20077;BME280;12348;42.710;23.378;2023-03-14T07:41:09;95148.84;;;13.70;38.13
20077;BME280;12348;42.710;23.378;2023-03-14T07:43:36;95123.91;;;16.27;35.09
20077;BME280;12348;42.710;23.378;2023-03-14T07:46:03;95131.28;;;16.94;33.61
20077;BME280;12348;42.710;23.378;2023-03-14T07:48:30;95119.22;;;17.04;33.84
20077;BME280;12348;42.710;23.378;2023-03-14T07:50:57;95123.47;;;16.84;33.93
20077;BME280;12348;42.710;23.378;2023-03-14T07:53:24;95124.06;;;13.77;38.07
20077;BME280;12348;42.710;23.378;2023-03-14T07:55:54;95110.63;;;15.00;37.07
20077;BME280;12348;42.710;23.378;2023-03-14T07:58:21;95120.00;;;16.45;35.63
20077;BME280;12348;42.710;23.378;2023-03-14T08:00:48;95135.09;;;13.58;38.29
20077;BME280;12348;42.710;23.378;2023-03-14T08:03:15;95125.47;;;13.07;38.07
20077;BME280;12348;42.710;23.378;2023-03-14T08:05:43;95116.94;;;14.52;38.30
20077;BME280;12348;42.710;23.378;2023-03-14T08:08:10;95121.66;;;14.95;37.33
20077;BME280;12348;42.710;23.378;2023-03-14T08:10:36;95114.28;;;15.91;35.71
20077;BME280;12348;42.710;23.378;2023-03-14T08:13:05;95116.81;;;15.96;34.65
20077;BME280;12348;42.710;23.378;2023-03-14T08:15:31;95111.13;;;17.16;34.37
20077;BME280;12348;42.710;23.378;2023-03-14T08:17:59;95106.19;;;16.50;35.31
20077;BME280;12348;42.710;23.378;2023-03-14T08:20:27;95109.00;;;17.97;33.19
20077;BME280;12348;42.710;23.378;2023-03-14T08:22:55;95109.84;;;16.54;33.87
20077;BME280;12348;42.710;23.378;2023-03-14T08:25:23;95109.00;;;17.22;34.31
20077;BME280;12348;42.710;23.378;2023-03-14T08:27:50;95109.97;;;16.37;35.55
20077;BME280;12348;42.710;23.378;2023-03-14T08:30:19;95104.19;;;17.60;32.90
20077;BME280;12348;42.710;23.378;2023-03-14T08:32:46;95100.53;;;17.56;33.45
20077;BME280;12348;42.710;23.378;2023-03-14T08:35:14;95102.03;;;15.67;34.82
20077;BME280;12348;42.710;23.378;2023-03-14T08:37:41;95096.47;;;17.29;34.06
20077;BME280;12348;42.710;23.378;2023-03-14T08:40:09;95090.97;;;15.81;35.16
20077;BME280;12348;42.710;23.378;2023-03-14T08:42:37;95092.94;;;15.28;36.11
20077;BME280;12348;42.710;23.378;2023-03-14T08:45:06;95083.63;;;16.58;34.25
20077;BME280;12348;42.710;23.378;2023-03-14T08:47:35;95079.88;;;16.71;34.69
20077;BME280;12348;42.710;23.378;2023-03-14T08:50:02;95082.41;;;15.36;35.75
20077;BME280;12348;42.710;23.378;2023-03-14T08:52:30;95079.41;;;16.02;34.60
20077;BME280;12348;42.710;23.378;2023-03-14T08:54:57;95068.84;;;15.01;36.21
20077;BME280;12348;42.710;23.378;2023-03-14T08:57:25;95064.41;;;16.93;35.41
20077;BME280;12348;42.710;23.378;2023-03-14T08:59:53;95057.53;;;17.83;33.06
20077;BME280;12348;42.710;23.378;2023-03-14T09:02:20;95053.47;;;16.81;34.88
20077;BME280;12348;42.710;23.378;2023-03-14T09:04:49;95046.91;;;18.51;31.77
20077;BME280;12348;42.710;23.378;2023-03-14T09:07:17;95045.84;;;17.95;31.76
20077;BME280;12348;42.710;23.378;2023-03-14T09:09:44;95045.88;;;16.86;32.74
20077;BME280;12348;42.710;23.378;2023-03-14T09:12:11;95041.25;;;16.57;33.46
20077;BME280;12348;42.710;23.378;2023-03-14T09:14:38;95032.22;;;17.82;32.53
20077;BME280;12348;42.710;23.378;2023-03-14T09:17:05;95027.50;;;15.39;35.14
20077;BME280;12348;42.710;23.378;2023-03-14T09:19:33;95025.94;;;15.03;36.78
20077;BME280;12348;42.710;23.378;2023-03-14T09:22:01;95018.97;;;16.13;34.57
20077;BME280;12348;42.710;23.378;2023-03-14T09:24:28;95026.16;;;16.39;34.50
20077;BME280;12348;42.710;23.378;2023-03-14T09:26:55;95011.22;;;17.50;34.16
20077;BME280;12348;42.710;23.378;2023-03-14T09:29:22;94999.31;;;17.42;34.21
20077;BME280;12348;42.710;23.378;2023-03-14T09:31:49;95000.78;;;16.35;34.69
20077;BME280;12348;42.710;23.378;2023-03-14T09:34:16;94999.03;;;17.68;32.86
20077;BME280;12348;42.710;23.378;2023-03-14T09:36:43;94991.88;;;17.63;33.09
20077;BME280;12348;42.710;23.378;2023-03-14T09:39:12;94987.84;;;17.94;32.33
20077;BME280;12348;42.710;23.378;2023-03-14T09:41:40;94981.00;;;17.30;34.25
20077;BME280;12348;42.710;23.378;2023-03-14T09:44:13;94973.31;;;16.78;36.63
20077;BME280;12348;42.710;23.378;2023-03-14T09:46:43;94970.34;;;16.92;36.65
20077;BME280;12348;42.710;23.378;2023-03-14T09:49:17;94953.25;;;17.37;34.44
20077;BME280;12348;42.710;23.378;2023-03-14T09:51:47;94963.84;;;17.17;34.50
20077;BME280;12348;42.710;23.378;2023-03-14T09:54:28;94952.66;;;16.35;35.93
20077;BME280;12348;42.710;23.378;2023-03-14T09:56:56;94947.94;;;17.65;34.59
20077;BME280;12348;42.710;23.378;2023-03-14T09:59:23;94941.13;;;16.80;35.54
20077;BME280;12348;42.710;23.378;2023-03-14T10:01:52;94937.78;;;16.12;36.93
20077;BME280;12348;42.710;23.378;2023-03-14T10:04:21;94923.47;;;17.77;34.43
20077;BME280;12348;42.710;23.378;2023-03-14T10:06:49;94926.38;;;18.46;34.10
20077;BME280;12348;42.710;23.378;2023-03-14T10:09:20;94910.88;;;18.09;34.65
20077;BME280;12348;42.710;23.378;2023-03-14T10:11:52;94917.16;;;18.50;33.55
20077;BME280;12348;42.710;23.378;2023-03-14T10:14:30;94917.19;;;18.38;33.80
20077;BME280;12348;42.710;23.378;2023-03-14T10:17:05;94912.66;;;16.99;35.46
20077;BME280;12348;42.710;23.378;2023-03-14T10:19:33;94903.91;;;18.24;34.17
20077;BME280;12348;42.710;23.378;2023-03-14T10:22:01;94898.00;;;16.91;35.36
20077;BME280;12348;42.710;23.378;2023-03-14T10:24:32;94893.56;;;16.65;35.54
20077;BME280;12348;42.710;23.378;2023-03-14T10:27:01;94888.56;;;16.55;36.41
20077;BME280;12348;42.710;23.378;2023-03-14T10:29:29;94884.16;;;17.29;34.95
20077;BME280;12348;42.710;23.378;2023-03-14T10:31:58;94872.06;;;17.88;33.89
20077;BME280;12348;42.710;23.378;2023-03-14T10:34:28;94865.41;;;18.26;34.42
20077;BME280;12348;42.710;23.378;2023-03-14T10:36:57;94860.38;;;17.75;34.95
20077;BME280;12348;42.710;23.378;2023-03-14T10:39:42;94849.91;;;18.02;34.76
20077;BME280;12348;42.710;23.378;2023-03-14T10:42:16;94841.66;;;17.49;35.20
20077;BME280;12348;42.710;23.378;2023-03-14T10:44:46;94832.47;;;18.31;33.92
20077;BME280;12348;42.710;23.378;2023-03-14T10:47:18;94827.41;;;18.45;34.28
20077;BME280;12348;42.710;23.378;2023-03-14T10:49:46;94824.03;;;18.36;34.00
20077;BME280;12348;42.710;23.378;2023-03-14T10:52:17;94804.41;;;19.02;32.97
20077;BME280;12348;42.710;23.378;2023-03-14T10:54:54;94809.25;;;16.53;35.86
20077;BME280;12348;42.710;23.378;2023-03-14T10:57:21;94792.31;;;16.68;36.56
20077;BME280;12348;42.710;23.378;2023-03-14T10:59:48;94787.06;;;16.84;35.86
20077;BME280;12348;42.710;23.378;2023-03-14T11:02:28;94786.19;;;18.06;34.87
20077;BME280;12348;42.710;23.378;2023-03-14T11:05:06;94772.38;;;18.55;34.01
20077;BME280;12348;42.710;23.378;2023-03-14T11:07:38;94776.88;;;18.63;33.76
20077;BME280;12348;42.710;23.378;2023-03-14T11:10:14;94765.72;;;18.40;34.75
20077;BME280;12348;42.710;23.378;2023-03-14T11:12:51;94765.00;;;18.28;33.15
20077;BME280;12348;42.710;23.378;2023-03-14T11:15:25;94757.09;;;18.23;33.21
20077;BME280;12348;42.710;23.378;2023-03-14T11:18:07;94744.59;;;18.65;33.28
20077;BME280;12348;42.710;23.378;2023-03-14T11:20:41;94733.91;;;17.88;33.98
20077;BME280;12348;42.710;23.378;2023-03-14T11:23:14;94729.81;;;17.42;34.67
20077;BME280;12348;42.710;23.378;2023-03-14T11:25:52;94713.44;;;17.54;34.72
20077;BME280;12348;42.710;23.378;2023-03-14T11:28:27;94705.41;;;17.45;34.62
20077;BME280;12348;42.710;23.378;2023-03-14T11:31:04;94702.59;;;18.23;33.99
20077;BME280;12348;42.710;23.378;2023-03-14T11:33:37;94693.66;;;18.54;34.74
20077;BME280;12348;42.710;23.378;2023-03-14T11:36:07;94688.84;;;18.95;34.12
20077;BME280;12348;42.710;23.378;2023-03-14T11:38:37;94693.19;;;19.66;32.78
20077;BME280;12348;42.710;23.378;2023-03-14T11:41:12;94677.13;;;18.94;33.46
20077;BME280;12348;42.710;23.378;2023-03-14T11:43:41;94674.44;;;19.65;32.85
20077;BME280;12348;42.710;23.378;2023-03-14T11:46:16;94665.84;;;20.24;33.05
20077;BME280;12348;42.710;23.378;2023-03-14T11:48:51;94655.00;;;19.89;33.19
20077;BME280;12348;42.710;23.378;2023-03-14T11:51:24;94658.19;;;19.72;32.28
20077;BME280;12348;42.710;23.378;2023-03-14T11:54:01;94652.03;;;18.57;32.29
20077;BME280;12348;42.710;23.378;2023-03-14T11:56:39;94642.97;;;17.25;35.12
20077;BME280;12348;42.710;23.378;2023-03-14T11:59:12;94640.50;;;18.48;32.39
20077;BME280;12348;42.710;23.378;2023-03-14T12:01:52;94632.94;;;18.88;31.82
20077;BME280;12348;42.710;23.378;2023-03-14T12:04:31;94631.53;;;18.31;32.29
20077;BME280;12348;42.710;23.378;2023-03-14T12:07:01;94626.03;;;16.66;33.79
20077;BME280;12348;42.710;23.378;2023-03-14T12:09:30;94620.28;;;15.98;34.55
20077;BME280;12348;42.710;23.378;2023-03-14T12:12:02;94622.78;;;15.91;34.48
20077;BME280;12348;42.710;23.378;2023-03-14T12:14:32;94619.00;;;16.41;34.21
20077;BME280;12348;42.710;23.378;2023-03-14T12:17:05;94609.97;;;16.74;33.72
20077;BME280;12348;42.710;23.378;2023-03-14T12:19:34;94597.44;;;17.09;33.43
20077;BME280;12348;42.710;23.378;2023-03-14T12:22:22;94593.66;;;17.54;33.73
20077;BME280;12348;42.710;23.378;2023-03-14T12:24:53;94589.53;;;17.44;33.46
20077;BME280;12348;42.710;23.378;2023-03-14T12:27:45;94588.16;;;17.10;33.50
20077;BME280;12348;42.710;23.378;2023-03-14T12:30:24;94583.25;;;17.16;33.37
20077;BME280;12348;42.710;23.378;2023-03-14T12:36:21;94572.31;;;17.40;33.88
20077;BME280;12348;42.710;23.378;2023-03-14T12:39:21;94558.72;;;17.56;33.43
20077;BME280;12348;42.710;23.378;2023-03-14T12:41:53;94561.25;;;17.77;32.85
20077;BME280;12348;42.710;23.378;2023-03-14T12:44:44;94558.88;;;17.76;32.73
20077;BME280;12348;42.710;23.378;2023-03-14T12:47:47;94545.75;;;17.09;33.00
20077;BME280;12348;42.710;23.378;2023-03-14T12:50:25;94547.88;;;16.63;33.92
20077;BME280;12348;42.710;23.378;2023-03-14T12:53:18;94550.84;;;16.58;34.29
20077;BME280;12348;42.710;23.378;2023-03-14T12:55:49;94536.78;;;16.56;34.46
20077;BME280;12348;42.710;23.378;2023-03-14T12:58:25;94550.63;;;16.51;33.91
20077;BME280;12348;42.710;23.378;2023-03-14T13:00:59;94534.88;;;16.08;34.61
20077;BME280;12348;42.710;23.378;2023-03-14T13:03:37;94529.38;;;16.69;34.25
20077;BME280;12348;42.710;23.378;2023-03-14T13:06:08;94526.34;;;16.70;33.88